createdAt,value
2024-01-16T00:01:14.840Z,65.13
2024-01-16T00:03:46.343Z,65.28
2024-01-16T00:06:14.268Z,65.20
2024-01-16T00:08:42.340Z,65.53
2024-01-16T00:11:10.340Z,65.73
2024-01-16T00:13:37.885Z,65.76
2024-01-16T00:16:05.851Z,65.87
2024-01-16T00:18:33.698Z,65.82
2024-01-16T00:21:03.247Z,65.48
2024-01-16T00:23:33.288Z,65.27
2024-01-16T00:26:01.195Z,65.14
2024-01-16T00:28:28.679Z,65.23
2024-01-16T00:30:56.258Z,65.52
2024-01-16T00:33:24.024Z,65.80
2024-01-16T00:35:51.923Z,65.39
2024-01-16T00:38:19.458Z,65.14
2024-01-16T00:40:46.893Z,64.80
2024-01-16T00:43:14.416Z,64.44
2024-01-16T00:45:41.910Z,64.80
2024-01-16T00:48:11.309Z,65.02
2024-01-16T00:50:39.524Z,65.58
2024-01-16T00:53:07.488Z,65.55
2024-01-16T00:55:35.771Z,65.41
2024-01-16T00:58:03.555Z,65.02
2024-01-16T01:00:32.368Z,64.74
2024-01-16T01:03:00.147Z,64.79
2024-01-16T01:05:29.121Z,64.35
2024-01-16T01:07:57.317Z,63.97
2024-01-16T01:10:28.495Z,63.77
2024-01-16T01:12:56.958Z,63.95
2024-01-16T01:15:24.952Z,63.85
2024-01-16T01:17:55.283Z,63.43
2024-01-16T01:20:23.885Z,62.67
2024-01-16T01:23:12.125Z,62.13
2024-01-16T01:26:09.274Z,62.44
2024-01-16T01:29:08.252Z,61.51
2024-01-16T01:32:18.678Z,61.67
2024-01-16T01:35:17.775Z,61.37
2024-01-16T01:38:25.503Z,57.94
2024-01-16T01:40:53.200Z,56.23
2024-01-16T01:43:22.106Z,55.90
2024-01-16T01:46:16.381Z,53.83
2024-01-16T01:48:44.965Z,50.99
2024-01-16T01:51:14.661Z,50.93
2024-01-16T01:53:44.600Z,51.86
2024-01-16T01:56:16.012Z,50.15
2024-01-16T01:58:55.038Z,51.01
2024-01-16T02:01:23.678Z,52.00
2024-01-16T02:03:53.299Z,51.03
2024-01-16T02:06:20.843Z,49.05
2024-01-16T02:08:48.498Z,48.92
2024-01-16T02:11:16.520Z,49.31
2024-01-16T02:13:44.011Z,49.31
2024-01-16T02:16:19.809Z,49.11
2024-01-16T02:18:47.421Z,49.04
2024-01-16T02:21:28.714Z,49.29
2024-01-16T02:23:56.159Z,50.29
2024-01-16T02:26:23.673Z,50.22
2024-01-16T02:28:52.149Z,49.56
2024-01-16T02:31:19.773Z,49.61
2024-01-16T02:33:47.175Z,49.70
2024-01-16T02:36:14.700Z,49.97
2024-01-16T02:38:45.368Z,50.79
2024-01-16T02:41:17.781Z,51.40
2024-01-16T02:43:46.342Z,51.32
2024-01-16T02:46:17.185Z,51.63
2024-01-16T02:48:44.778Z,52.13
2024-01-16T02:51:13.467Z,52.25
2024-01-16T02:53:41.163Z,52.70
2024-01-16T02:56:09.560Z,52.73
2024-01-16T02:58:37.753Z,52.61
2024-01-16T03:01:05.402Z,52.87
2024-01-16T03:03:32.743Z,52.82
2024-01-16T03:06:00.361Z,52.85
2024-01-16T03:08:28.045Z,52.69
2024-01-16T03:10:55.480Z,52.95
2024-01-16T03:13:23.157Z,53.12
2024-01-16T03:15:51.357Z,53.27
2024-01-16T03:18:19.076Z,53.01
2024-01-16T03:20:46.492Z,53.47
2024-01-16T03:23:14.528Z,53.39
2024-01-16T03:25:42.117Z,53.15
2024-01-16T03:28:11.222Z,53.26
2024-01-16T03:30:38.657Z,53.10
2024-01-16T03:33:06.290Z,53.18
2024-01-16T03:35:34.908Z,53.75
2024-01-16T03:38:02.699Z,53.81
2024-01-16T03:40:34.669Z,54.06
2024-01-16T03:43:02.561Z,54.39
2024-01-16T03:45:30.489Z,54.51
2024-01-16T03:47:59.482Z,54.70
2024-01-16T03:50:27.186Z,54.72
2024-01-16T03:52:54.583Z,54.86
2024-01-16T03:55:21.879Z,54.58
2024-01-16T03:57:49.315Z,54.43
2024-01-16T04:00:17.388Z,54.28
2024-01-16T04:02:44.874Z,54.29
2024-01-16T04:05:12.596Z,54.23
2024-01-16T04:07:40.072Z,54.26
2024-01-16T04:10:08.382Z,54.67
2024-01-16T04:12:35.973Z,54.52
2024-01-16T04:15:03.408Z,54.48
2024-01-16T04:17:30.779Z,54.12
2024-01-16T04:19:59.191Z,54.34
2024-01-16T04:22:26.626Z,54.59
2024-01-16T04:24:54.030Z,54.72
2024-01-16T04:27:21.326Z,54.60
2024-01-16T04:29:49.006Z,54.38
2024-01-16T04:32:16.502Z,54.23
2024-01-16T04:34:43.790Z,54.19
2024-01-16T04:37:11.681Z,53.99
2024-01-16T04:39:38.987Z,53.90
2024-01-16T04:42:06.363Z,53.98
2024-01-16T04:44:33.774Z,54.22
2024-01-16T04:47:01.192Z,53.56
2024-01-16T04:49:28.742Z,53.37
2024-01-16T04:51:56.553Z,53.43
2024-01-16T04:54:23.957Z,53.35
2024-01-16T04:56:51.402Z,52.99
2024-01-16T04:59:18.810Z,53.25
2024-01-16T05:01:46.514Z,53.56
2024-01-16T05:04:14.186Z,53.90
2024-01-16T05:06:42.147Z,53.97
2024-01-16T05:09:10.210Z,54.21
2024-01-16T05:11:37.593Z,53.97
2024-01-16T05:14:05.097Z,53.67
2024-01-16T05:16:32.349Z,53.92
2024-01-16T05:18:59.874Z,53.54
2024-01-16T05:21:27.458Z,54.04
2024-01-16T05:23:54.990Z,53.82
2024-01-16T05:26:22.994Z,53.98
2024-01-16T05:28:52.002Z,53.54
2024-01-16T05:31:20.353Z,53.36
2024-01-16T05:33:47.628Z,53.25
2024-01-16T05:36:16.985Z,53.07
2024-01-16T05:38:44.968Z,53.11
2024-01-16T05:41:12.549Z,53.02
2024-01-16T05:43:39.968Z,53.66
2024-01-16T05:46:07.334Z,53.32
2024-01-16T05:48:34.697Z,53.62
2024-01-16T05:51:02.074Z,53.08
2024-01-16T05:53:29.588Z,53.65
2024-01-16T05:55:57.494Z,52.99
2024-01-16T05:58:24.933Z,52.25
2024-01-16T06:00:52.530Z,52.83
2024-01-16T06:03:20.659Z,52.83
2024-01-16T06:05:48.089Z,52.72
2024-01-16T06:08:15.720Z,52.74
2024-01-16T06:10:44.768Z,52.69
2024-01-16T06:13:12.206Z,52.94
2024-01-16T06:15:39.449Z,52.52
2024-01-16T06:18:07.128Z,52.92
2024-01-16T06:20:34.892Z,52.31
2024-01-16T06:23:02.595Z,51.58
2024-01-16T06:25:30.867Z,50.88
2024-01-16T06:27:59.285Z,50.53
2024-01-16T06:30:27.837Z,49.73
2024-01-16T06:32:55.631Z,50.38
2024-01-16T06:35:25.775Z,49.90
2024-01-16T06:37:53.296Z,50.57
2024-01-16T06:40:21.623Z,49.41
2024-01-16T06:42:49.224Z,48.52
2024-01-16T06:45:17.454Z,48.83
2024-01-16T06:47:45.007Z,46.77
2024-01-16T06:50:13.347Z,47.42
2024-01-16T06:52:40.830Z,48.24
2024-01-16T06:55:08.533Z,47.92
2024-01-16T06:57:36.576Z,47.68
2024-01-16T07:00:07.815Z,47.85
2024-01-16T07:02:37.066Z,47.99
2024-01-16T07:05:04.786Z,47.21
2024-01-16T07:07:32.012Z,47.77
2024-01-16T07:09:59.346Z,47.70
2024-01-16T07:12:26.879Z,46.20
2024-01-16T07:14:54.293Z,46.53
2024-01-16T07:17:21.782Z,46.79
2024-01-16T07:19:49.007Z,47.01
2024-01-16T07:22:16.641Z,47.26
2024-01-16T07:24:43.778Z,46.44
2024-01-16T07:27:10.936Z,47.02
2024-01-16T07:29:39.578Z,45.57
2024-01-16T07:32:06.966Z,43.93
2024-01-16T07:34:34.390Z,40.70
2024-01-16T07:37:01.755Z,40.29
2024-01-16T07:39:29.252Z,41.34
2024-01-16T07:41:56.720Z,41.29
2024-01-16T07:44:26.022Z,41.72
2024-01-16T07:46:53.349Z,40.78
2024-01-16T07:49:20.510Z,41.78
2024-01-16T07:51:47.733Z,42.17
2024-01-16T07:54:15.247Z,41.00
2024-01-16T07:56:42.715Z,41.07
2024-01-16T07:59:09.963Z,40.55
2024-01-16T08:01:38.733Z,40.89
2024-01-16T08:04:06.383Z,40.86
2024-01-16T08:06:33.845Z,40.51
2024-01-16T08:09:01.313Z,40.97
2024-01-16T08:11:29.851Z,41.27
2024-01-16T08:13:57.115Z,40.96
2024-01-16T08:16:24.570Z,40.85
2024-01-16T08:18:51.930Z,40.18
2024-01-16T08:21:19.104Z,40.68
2024-01-16T08:23:46.330Z,40.61
2024-01-16T08:26:13.602Z,40.31
2024-01-16T08:28:40.821Z,40.80
2024-01-16T08:31:08.142Z,40.94
2024-01-16T08:33:42.857Z,41.29
2024-01-16T08:36:14.340Z,41.36
2024-01-16T08:38:42.032Z,41.47
2024-01-16T08:41:09.676Z,41.75
2024-01-16T08:43:37.118Z,42.08
2024-01-16T08:46:04.461Z,41.44
2024-01-16T08:48:32.287Z,41.73
2024-01-16T08:51:01.325Z,41.72
2024-01-16T08:53:29.213Z,41.81
2024-01-16T08:55:56.890Z,42.47
2024-01-16T08:58:24.252Z,41.64
2024-01-16T09:00:51.631Z,41.71
2024-01-16T09:03:18.907Z,41.79
2024-01-16T09:05:46.742Z,41.91
2024-01-16T09:08:14.456Z,42.23
2024-01-16T09:10:41.774Z,41.91
2024-01-16T09:13:09.200Z,41.41
2024-01-16T09:15:36.646Z,41.18
2024-01-16T09:18:04.237Z,41.33
2024-01-16T09:20:31.827Z,41.49
2024-01-16T09:22:59.096Z,41.48
2024-01-16T09:25:28.400Z,41.16
2024-01-16T09:27:55.919Z,41.24
2024-01-16T09:30:23.741Z,40.73
2024-01-16T09:32:51.195Z,40.48
2024-01-16T09:35:19.119Z,40.36
2024-01-16T09:37:46.695Z,40.31
2024-01-16T09:40:14.347Z,39.72
2024-01-16T09:42:42.346Z,39.93
2024-01-16T09:45:10.809Z,39.47
2024-01-16T09:47:40.242Z,38.76
2024-01-16T09:50:08.120Z,38.36
2024-01-16T09:52:35.932Z,38.21
2024-01-16T09:55:03.614Z,38.35
2024-01-16T09:57:33.664Z,37.80
2024-01-16T10:00:04.288Z,37.71
2024-01-16T10:02:35.002Z,37.54
2024-01-16T10:05:02.419Z,37.48
2024-01-16T10:07:34.251Z,37.72
2024-01-16T10:10:01.650Z,37.58
2024-01-16T10:12:29.883Z,37.49
2024-01-16T10:14:57.764Z,37.90
2024-01-16T10:17:40.067Z,37.87
2024-01-16T10:20:19.314Z,37.78
2024-01-16T10:22:54.664Z,37.88
2024-01-16T10:25:25.720Z,37.88
2024-01-16T10:28:05.773Z,37.88
2024-01-16T10:30:34.382Z,38.06
2024-01-16T10:33:15.379Z,38.32
2024-01-16T10:35:42.720Z,38.85
2024-01-16T10:38:10.265Z,38.73
2024-01-16T10:40:37.650Z,38.79
2024-01-16T10:43:05.683Z,38.61
2024-01-16T10:45:34.149Z,38.79
2024-01-16T10:48:08.981Z,38.72
2024-01-16T10:50:39.512Z,38.48
2024-01-16T10:53:09.013Z,38.42
2024-01-16T10:55:58.221Z,38.48
2024-01-16T10:58:36.230Z,38.06
2024-01-16T11:01:11.804Z,38.07
2024-01-16T11:03:44.285Z,37.91
2024-01-16T11:06:12.413Z,37.41
2024-01-16T11:08:40.667Z,36.73
2024-01-16T11:11:09.568Z,35.64
2024-01-16T11:13:37.638Z,35.54
2024-01-16T11:16:07.753Z,35.23
2024-01-16T11:18:36.067Z,35.06
2024-01-16T11:21:09.915Z,35.01
2024-01-16T11:23:41.003Z,34.65
2024-01-16T11:26:29.460Z,34.73
2024-01-16T11:29:21.772Z,35.01
2024-01-16T11:31:49.283Z,34.96
2024-01-16T11:34:42.719Z,34.82
2024-01-16T11:37:14.145Z,34.86
2024-01-16T11:39:41.975Z,33.78
2024-01-16T11:42:11.237Z,33.84
2024-01-16T11:44:47.725Z,34.05
2024-01-16T11:47:23.786Z,33.34
2024-01-16T11:50:11.651Z,32.72
2024-01-16T11:52:44.315Z,32.76
2024-01-16T11:55:32.668Z,32.43
2024-01-16T11:58:34.407Z,31.72
2024-01-16T12:01:04.699Z,31.18
2024-01-16T12:03:35.601Z,30.41
2024-01-16T12:06:07.540Z,31.12
2024-01-16T12:08:39.950Z,31.72
2024-01-16T12:11:08.324Z,31.66
2024-01-16T12:13:36.086Z,31.88
2024-01-16T12:16:07.181Z,31.32
2024-01-16T12:18:42.569Z,31.66
2024-01-16T12:21:13.672Z,31.15
2024-01-16T12:23:47.107Z,31.97
2024-01-16T12:26:23.434Z,32.11
2024-01-16T12:28:59.784Z,31.85
2024-01-16T12:31:29.887Z,31.04
2024-01-16T12:34:11.014Z,30.55
2024-01-16T12:36:41.372Z,31.01
2024-01-16T12:39:14.510Z,31.35
2024-01-16T12:41:44.549Z,31.11
2024-01-16T12:44:16.616Z,30.80
2024-01-16T12:47:05.824Z,31.07
2024-01-16T12:49:44.985Z,30.80
2024-01-16T12:52:26.463Z,30.09
2024-01-16T12:55:07.595Z,30.80
2024-01-16T12:57:34.968Z,30.71
2024-01-16T13:00:05.352Z,30.14
2024-01-16T13:02:34.178Z,29.91
2024-01-16T13:05:04.220Z,29.14
2024-01-16T13:07:33.775Z,28.80
2024-01-16T13:10:16.580Z,29.27
2024-01-16T13:12:43.889Z,28.20
2024-01-16T13:15:11.870Z,28.32
2024-01-16T13:17:39.750Z,28.58
2024-01-16T13:20:10.690Z,28.68
2024-01-16T13:22:44.587Z,28.82
2024-01-16T13:25:15.476Z,28.30
2024-01-16T13:27:42.688Z,28.04
2024-01-16T13:30:11.177Z,28.25
2024-01-16T13:32:38.970Z,29.34
2024-01-16T13:35:10.320Z,29.43
2024-01-16T13:37:38.267Z,30.25
2024-01-16T13:40:15.968Z,32.15
2024-01-16T13:42:43.338Z,34.49
2024-01-16T13:45:31.179Z,36.53
2024-01-16T13:48:01.966Z,37.38
2024-01-16T13:51:00.814Z,38.37
2024-01-16T13:53:32.110Z,38.47
2024-01-16T13:55:59.550Z,38.77
2024-01-16T13:58:27.505Z,39.30
2024-01-16T14:00:54.881Z,40.00
2024-01-16T14:03:23.198Z,40.22
2024-01-16T14:05:53.560Z,40.57
2024-01-16T14:08:20.758Z,40.72
2024-01-16T14:10:58.647Z,40.64
2024-01-16T14:13:30.516Z,40.98
2024-01-16T14:15:58.124Z,41.21
2024-01-16T14:18:28.254Z,41.38
2024-01-16T14:20:58.206Z,41.53
2024-01-16T14:23:25.801Z,41.32
2024-01-16T14:25:54.442Z,41.20
2024-01-16T14:28:30.085Z,41.14
2024-01-16T14:31:01.049Z,41.70
2024-01-16T14:33:31.629Z,42.08
2024-01-16T14:36:02.622Z,41.92
2024-01-16T14:38:32.781Z,42.07
2024-01-16T14:41:00.428Z,41.98
2024-01-16T14:43:29.504Z,41.81
2024-01-16T14:45:59.013Z,41.86
2024-01-16T14:48:26.593Z,41.71
2024-01-16T14:50:54.048Z,41.64
2024-01-16T14:53:21.284Z,41.63
2024-01-16T14:55:49.229Z,42.02
2024-01-16T14:58:19.370Z,41.98
2024-01-16T15:00:49.256Z,41.98
2024-01-16T15:03:18.930Z,41.84
2024-01-16T15:05:52.989Z,41.94
2024-01-16T15:08:20.245Z,41.59
2024-01-16T15:10:48.492Z,41.65
2024-01-16T15:13:15.949Z,41.51
2024-01-16T15:15:43.962Z,41.90
2024-01-16T15:18:14.255Z,42.00
2024-01-16T15:20:42.553Z,42.25
2024-01-16T15:23:09.762Z,42.17
2024-01-16T15:25:37.873Z,41.93
2024-01-16T15:28:05.327Z,41.94
2024-01-16T15:30:36.783Z,42.19
2024-01-16T15:33:06.312Z,41.83
2024-01-16T15:35:37.955Z,42.14
2024-01-16T15:38:05.221Z,41.65
2024-01-16T15:40:32.415Z,42.04
2024-01-16T15:43:00.218Z,42.37
2024-01-16T15:45:28.223Z,42.41
2024-01-16T15:47:55.790Z,42.72
2024-01-16T15:50:23.576Z,42.43
2024-01-16T15:52:54.027Z,42.13
2024-01-16T15:55:22.025Z,41.52
2024-01-16T15:57:49.488Z,41.39
2024-01-16T16:00:18.066Z,41.48
2024-01-16T16:02:49.286Z,41.06
2024-01-16T16:05:17.578Z,41.23
2024-01-16T16:07:45.421Z,40.89
2024-01-16T16:10:12.762Z,41.04
2024-01-16T16:12:40.622Z,40.66
2024-01-16T16:15:08.198Z,40.31
2024-01-16T16:17:36.034Z,40.37
2024-01-16T16:20:04.134Z,40.21
2024-01-16T16:22:31.504Z,40.21
2024-01-16T16:24:58.964Z,40.06
2024-01-16T16:27:29.429Z,40.02
2024-01-16T16:29:58.130Z,39.83
2024-01-16T16:32:26.155Z,39.22
2024-01-16T16:34:54.006Z,39.18
2024-01-16T16:37:24.621Z,39.67
2024-01-16T16:39:54.928Z,39.98
2024-01-16T16:42:24.127Z,39.81
2024-01-16T16:44:55.527Z,40.36
2024-01-16T16:47:23.256Z,39.75
2024-01-16T16:49:50.959Z,39.91
2024-01-16T16:52:21.511Z,40.26
2024-01-16T16:54:49.219Z,40.33
2024-01-16T16:57:16.857Z,40.22
2024-01-16T16:59:44.419Z,40.76
2024-01-16T17:02:11.978Z,40.82
2024-01-16T17:04:40.413Z,41.42
2024-01-16T17:07:09.930Z,41.36
2024-01-16T17:09:38.795Z,42.18
2024-01-16T17:12:07.103Z,42.88
2024-01-16T17:14:36.648Z,42.79
2024-01-16T17:17:04.467Z,42.56
2024-01-16T17:19:31.879Z,42.20
2024-01-16T17:21:59.473Z,42.53
2024-01-16T17:24:30.313Z,42.25
2024-01-16T17:27:18.000Z,42.74
2024-01-16T17:29:45.955Z,43.36
2024-01-16T17:32:13.530Z,43.43
2024-01-16T17:34:41.241Z,43.85
2024-01-16T17:37:34.587Z,43.52
2024-01-16T17:40:03.241Z,43.07
2024-01-16T17:43:23.171Z,43.02
2024-01-16T17:46:10.922Z,43.44
2024-01-16T17:48:41.585Z,43.32
2024-01-16T17:51:35.076Z,42.97
2024-01-16T17:54:06.010Z,43.79
2024-01-16T17:56:49.492Z,43.94
2024-01-16T17:59:31.851Z,43.57
2024-01-16T18:02:32.778Z,43.88
2024-01-16T18:10:00.248Z,44.44
2024-01-16T18:13:29.225Z,44.75
2024-01-16T18:16:11.541Z,44.01
2024-01-16T18:19:22.747Z,44.01
2024-01-16T18:28:11.427Z,44.17
2024-01-16T18:34:09.954Z,45.45
2024-01-16T18:36:44.383Z,45.20
2024-01-16T18:42:16.498Z,44.22
2024-01-16T18:45:13.164Z,44.36
2024-01-16T18:50:55.017Z,43.82
2024-01-16T18:53:22.765Z,43.59
2024-01-16T18:55:52.658Z,44.25
2024-01-16T18:58:20.299Z,44.24
2024-01-16T19:01:26.308Z,44.23
2024-01-16T19:04:01.841Z,43.83
2024-01-16T19:09:23.419Z,43.43
2024-01-16T19:16:47.394Z,43.43
2024-01-16T19:19:32.873Z,43.28
2024-01-16T19:22:23.193Z,43.10
2024-01-16T19:25:01.534Z,43.51
2024-01-16T19:27:36.085Z,43.47
2024-01-16T19:30:30.071Z,43.40
2024-01-16T19:32:57.597Z,43.61
2024-01-16T19:35:25.254Z,43.36
2024-01-16T19:37:53.616Z,42.96
2024-01-16T19:40:21.037Z,43.05
2024-01-16T19:42:48.392Z,42.55
2024-01-16T19:45:17.970Z,42.76
2024-01-16T19:47:46.123Z,42.96
2024-01-16T19:50:23.471Z,43.21
2024-01-16T19:52:55.882Z,43.03
2024-01-16T19:55:26.991Z,43.32
2024-01-16T20:01:31.283Z,43.29
2024-01-16T20:04:02.323Z,42.97
2024-01-16T20:06:29.869Z,43.15
2024-01-16T20:09:04.821Z,42.95
2024-01-16T20:11:33.165Z,42.39
2024-01-16T20:14:02.571Z,42.79
2024-01-16T20:16:29.899Z,42.52
2024-01-16T20:18:58.126Z,42.37
2024-01-16T20:21:26.590Z,42.24
2024-01-16T20:23:54.736Z,41.84
2024-01-16T20:26:22.165Z,41.69
2024-01-16T20:28:49.552Z,41.48
2024-01-16T20:31:17.747Z,41.32
2024-01-16T20:33:46.666Z,41.39
2024-01-16T20:36:14.529Z,41.65
2024-01-16T20:38:45.850Z,41.98
2024-01-16T20:41:15.618Z,42.05
2024-01-16T20:43:43.952Z,42.19
2024-01-16T20:46:11.419Z,42.37
2024-01-16T20:48:39.498Z,42.27
2024-01-16T20:51:07.018Z,42.46
2024-01-16T20:53:34.377Z,43.04
2024-01-16T20:56:01.773Z,43.32
2024-01-16T20:58:29.314Z,42.63
2024-01-16T21:00:57.464Z,42.71
2024-01-16T21:03:28.217Z,42.75
2024-01-16T21:05:57.232Z,43.14
2024-01-16T21:08:24.961Z,43.10
2024-01-16T21:10:52.504Z,42.88
2024-01-16T21:13:20.112Z,42.63
2024-01-16T21:15:47.485Z,42.41
2024-01-16T21:18:16.766Z,42.56
2024-01-16T21:20:44.814Z,42.90
2024-01-16T21:23:12.232Z,43.64
2024-01-16T21:25:40.092Z,43.65
2024-01-16T21:28:08.874Z,43.78
2024-01-16T21:30:36.091Z,44.32
2024-01-16T21:33:04.205Z,44.72
2024-01-16T21:35:31.902Z,44.58
2024-01-16T21:37:59.339Z,44.71
2024-01-16T21:40:27.481Z,44.42
2024-01-16T21:42:54.935Z,44.56
2024-01-16T21:45:22.380Z,44.65
2024-01-16T21:47:51.850Z,44.88
2024-01-16T21:50:26.198Z,44.94
2024-01-16T21:53:00.879Z,45.01
2024-01-16T21:55:28.538Z,45.34
2024-01-16T21:57:56.762Z,44.81
2024-01-16T22:00:23.942Z,44.50
2024-01-16T22:02:57.620Z,44.55
2024-01-16T22:05:27.168Z,43.92
2024-01-16T22:07:54.568Z,43.55
2024-01-16T22:10:21.816Z,43.52
2024-01-16T22:12:49.724Z,43.81
2024-01-16T22:15:17.092Z,43.90
2024-01-16T22:17:47.399Z,44.17
2024-01-16T22:20:15.861Z,44.59
2024-01-16T22:22:43.535Z,44.48
2024-01-16T22:25:10.769Z,44.47
2024-01-16T22:27:38.021Z,44.62
2024-01-16T22:30:08.753Z,44.97
2024-01-16T22:32:36.352Z,45.10
2024-01-16T22:35:03.990Z,45.56
2024-01-16T22:37:31.306Z,45.20
2024-01-16T22:39:58.648Z,45.42
2024-01-16T22:42:25.856Z,45.24
2024-01-16T22:44:53.463Z,45.59
2024-01-16T22:47:21.025Z,45.71
2024-01-16T22:49:48.529Z,45.58
2024-01-16T22:52:15.867Z,45.59
2024-01-16T22:54:43.941Z,45.52
2024-01-16T22:57:11.129Z,45.83
2024-01-16T22:59:38.491Z,45.89
2024-01-16T23:02:06.140Z,46.30
2024-01-16T23:04:33.670Z,46.20
2024-01-16T23:07:01.141Z,46.50
2024-01-16T23:09:28.593Z,46.48
2024-01-16T23:11:55.869Z,46.43
2024-01-16T23:14:23.174Z,47.08
2024-01-16T23:16:50.897Z,47.53
2024-01-16T23:19:19.768Z,46.85
2024-01-16T23:21:48.736Z,46.56
2024-01-16T23:24:16.399Z,46.49
2024-01-16T23:26:43.996Z,46.74
2024-01-16T23:29:12.498Z,47.10
2024-01-16T23:31:40.329Z,46.64
2024-01-16T23:34:08.616Z,46.43
2024-01-16T23:36:37.291Z,46.43
2024-01-16T23:39:05.760Z,46.40
2024-01-16T23:41:33.281Z,45.83
2024-01-16T23:44:01.410Z,45.97
2024-01-16T23:46:28.635Z,45.34
2024-01-16T23:48:59.692Z,45.11
2024-01-16T23:51:28.483Z,44.95
2024-01-16T23:53:56.658Z,45.36
2024-01-16T23:56:24.036Z,46.03
2024-01-16T23:58:51.626Z,46.04
